sensor_id;sensor_type;location;lat;lon;timestamp;temperature;humidity
70149;DHT22;57514;52.164;5.282;2023-07-13T00:00:26;16.90;83.80
70149;DHT22;57514;52.164;5.282;2023-07-13T00:02:54;18.20;76.10
70149;DHT22;57514;52.164;5.282;2023-07-13T00:05:22;18.20;76.90
70149;DHT22;57514;52.164;5.282;2023-07-13T00:07:52;18.00;75.20
70149;DHT22;57514;52.164;5.282;2023-07-13T00:15:25;18.10;75.60
70149;DHT22;57514;52.164;5.282;2023-07-13T00:17:54;18.10;77.80
70149;DHT22;57514;52.164;5.282;2023-07-13T00:20:25;16.60;85.50
70149;DHT22;57514;52.164;5.282;2023-07-13T00:22:52;18.10;77.60
70149;DHT22;57514;52.164;5.282;2023-07-13T00:27:54;17.40;90.30
70149;DHT22;57514;52.164;5.282;2023-07-13T00:30:25;18.00;77.80
70149;DHT22;57514;52.164;5.282;2023-07-13T00:32:57;19.00;90.70
70149;DHT22;57514;52.164;5.282;2023-07-13T00:38:11;17.20;84.40
70149;DHT22;57514;52.164;5.282;2023-07-13T00:43:16;17.90;76.80
70149;DHT22;57514;52.164;5.282;2023-07-13T00:48:17;17.60;85.60
70149;DHT22;57514;52.164;5.282;2023-07-13T00:50:48;16.70;90.50
70149;DHT22;57514;52.164;5.282;2023-07-13T00:53:18;16.70;88.60
70149;DHT22;57514;52.164;5.282;2023-07-13T00:55:46;17.60;77.80
70149;DHT22;57514;52.164;5.282;2023-07-13T01:10:33;15.90;82.20
70149;DHT22;57514;52.164;5.282;2023-07-13T01:13:07;17.30;79.70
70149;DHT22;57514;52.164;5.282;2023-07-13T01:15:48;18.60;88.00
70149;DHT22;57514;52.164;5.282;2023-07-13T01:18:26;17.70;80.90
70149;DHT22;57514;52.164;5.282;2023-07-13T01:21:01;18.60;91.90
70149;DHT22;57514;52.164;5.282;2023-07-13T01:23:29;17.10;80.30
70149;DHT22;57514;52.164;5.282;2023-07-13T01:25:59;17.10;80.50
70149;DHT22;57514;52.164;5.282;2023-07-13T01:28:27;17.10;80.70
70149;DHT22;57514;52.164;5.282;2023-07-13T01:30:56;18.40;92.10
70149;DHT22;57514;52.164;5.282;2023-07-13T01:35:53;18.10;92.20
70149;DHT22;57514;52.164;5.282;2023-07-13T01:38:23;18.40;88.30
70149;DHT22;57514;52.164;5.282;2023-07-13T01:40:53;18.50;92.40
70149;DHT22;57514;52.164;5.282;2023-07-13T02:17:52;15.10;92.70
70149;DHT22;57514;52.164;5.282;2023-07-13T02:20:19;17.90;93.40
70149;DHT22;57514;52.164;5.282;2023-07-13T02:22:46;16.70;86.50
70149;DHT22;57514;52.164;5.282;2023-07-13T02:35:06;16.30;85.70
70149;DHT22;57514;52.164;5.282;2023-07-13T02:47:33;16.40;84.40
70149;DHT22;57514;52.164;5.282;2023-07-13T02:57:22;14.80;90.60
70149;DHT22;57514;52.164;5.282;2023-07-13T03:02:16;17.50;92.50
70149;DHT22;57514;52.164;5.282;2023-07-13T03:09:41;15.00;94.00
70149;DHT22;57514;52.164;5.282;2023-07-13T03:22:05;14.90;87.20
70149;DHT22;57514;52.164;5.282;2023-07-13T03:24:34;16.20;86.40
70149;DHT22;57514;52.164;5.282;2023-07-13T03:27:06;16.10;86.20
70149;DHT22;57514;52.164;5.282;2023-07-13T03:32:08;15.80;91.70
70149;DHT22;57514;52.164;5.282;2023-07-13T03:34:36;15.10;94.50
70149;DHT22;57514;52.164;5.282;2023-07-13T03:44:30;15.10;90.00
70149;DHT22;57514;52.164;5.282;2023-07-13T03:54:20;17.70;94.80
70149;DHT22;57514;52.164;5.282;2023-07-13T03:56:47;17.50;95.10
70149;DHT22;57514;52.164;5.282;2023-07-13T04:01:45;15.20;89.80
70149;DHT22;57514;52.164;5.282;2023-07-13T04:11:36;16.80;95.40
70149;DHT22;57514;52.164;5.282;2023-07-13T04:14:03;15.00;93.20
70149;DHT22;57514;52.164;5.282;2023-07-13T04:16:30;15.00;92.90
70149;DHT22;57514;52.164;5.282;2023-07-13T04:21:28;16.40;88.60
70149;DHT22;57514;52.164;5.282;2023-07-13T04:23:56;15.80;91.90
70149;DHT22;57514;52.164;5.282;2023-07-13T04:33:46;16.90;94.80
70149;DHT22;57514;52.164;5.282;2023-07-13T04:38:43;16.60;87.40
70149;DHT22;57514;52.164;5.282;2023-07-13T04:46:07;16.80;89.20
70149;DHT22;57514;52.164;5.282;2023-07-13T04:48:34;16.30;89.40
70149;DHT22;57514;52.164;5.282;2023-07-13T04:51:02;17.20;90.70
70149;DHT22;57514;52.164;5.282;2023-07-13T04:53:30;15.80;89.50
70149;DHT22;57514;52.164;5.282;2023-07-13T04:58:25;18.10;88.50
70149;DHT22;57514;52.164;5.282;2023-07-13T05:00:59;17.70;88.00
70149;DHT22;57514;52.164;5.282;2023-07-13T05:03:27;16.90;94.50
70149;DHT22;57514;52.164;5.282;2023-07-13T05:06:06;17.80;94.80
70149;DHT22;57514;52.164;5.282;2023-07-13T05:08:33;16.70;88.90
70149;DHT22;57514;52.164;5.282;2023-07-13T05:11:01;16.30;94.40
70149;DHT22;57514;52.164;5.282;2023-07-13T05:16:01;17.70;90.10
70149;DHT22;57514;52.164;5.282;2023-07-13T05:18:30;19.40;94.90
70149;DHT22;57514;52.164;5.282;2023-07-13T05:21:08;17.80;84.80
70149;DHT22;57514;52.164;5.282;2023-07-13T05:23:36;17.90;86.70
70149;DHT22;57514;52.164;5.282;2023-07-13T05:26:03;17.20;86.80
70149;DHT22;57514;52.164;5.282;2023-07-13T05:35:58;19.30;93.80
70149;DHT22;57514;52.164;5.282;2023-07-13T05:38:27;18.70;94.70
70149;DHT22;57514;52.164;5.282;2023-07-13T05:40:55;18.90;86.50
70149;DHT22;57514;52.164;5.282;2023-07-13T05:43:26;19.00;83.50
70149;DHT22;57514;52.164;5.282;2023-07-13T05:45:55;19.10;85.40
70149;DHT22;57514;52.164;5.282;2023-07-13T05:48:23;19.10;92.80
70149;DHT22;57514;52.164;5.282;2023-07-13T05:50:54;19.40;90.10
70149;DHT22;57514;52.164;5.282;2023-07-13T06:01:02;20.80;87.30
70149;DHT22;57514;52.164;5.282;2023-07-13T06:03:31;18.90;91.80
70149;DHT22;57514;52.164;5.282;2023-07-13T06:08:29;21.40;92.00
70149;DHT22;57514;52.164;5.282;2023-07-13T06:11:05;21.00;90.10
70149;DHT22;57514;52.164;5.282;2023-07-13T06:18:32;19.80;91.80
70149;DHT22;57514;52.164;5.282;2023-07-13T06:20:59;21.00;92.90
70149;DHT22;57514;52.164;5.282;2023-07-13T06:23:26;21.20;92.60
70149;DHT22;57514;52.164;5.282;2023-07-13T06:30:50;20.60;81.70
70149;DHT22;57514;52.164;5.282;2023-07-13T06:35:45;20.90;91.20
70149;DHT22;57514;52.164;5.282;2023-07-13T06:38:12;21.10;83.00
70149;DHT22;57514;52.164;5.282;2023-07-13T06:45:42;22.00;72.50
70149;DHT22;57514;52.164;5.282;2023-07-13T06:48:18;23.50;75.30
70149;DHT22;57514;52.164;5.282;2023-07-13T06:50:47;26.10;75.20
70149;DHT22;57514;52.164;5.282;2023-07-13T06:55:43;22.40;76.50
70149;DHT22;57514;52.164;5.282;2023-07-13T07:00:38;22.10;74.10
70149;DHT22;57514;52.164;5.282;2023-07-13T07:03:07;24.10;75.30
70149;DHT22;57514;52.164;5.282;2023-07-13T07:08:04;23.40;75.90
70149;DHT22;57514;52.164;5.282;2023-07-13T07:10:32;20.70;71.90
70149;DHT22;57514;52.164;5.282;2023-07-13T07:15:26;21.40;71.30
70149;DHT22;57514;52.164;5.282;2023-07-13T07:27:45;17.80;94.10
70149;DHT22;57514;52.164;5.282;2023-07-13T07:41:55;18.30;90.80
70149;DHT22;57514;52.164;5.282;2023-07-13T07:47:20;18.70;92.70
70149;DHT22;57514;52.164;5.282;2023-07-13T08:02:13;21.80;99.90
70149;DHT22;57514;52.164;5.282;2023-07-13T08:05:03;25.50;95.40
70149;DHT22;57514;52.164;5.282;2023-07-13T08:14:58;26.40;93.80
70149;DHT22;57514;52.164;5.282;2023-07-13T08:27:24;24.30;77.20
70149;DHT22;57514;52.164;5.282;2023-07-13T08:29:51;22.70;76.60
70149;DHT22;57514;52.164;5.282;2023-07-13T08:32:23;23.30;78.90
70149;DHT22;57514;52.164;5.282;2023-07-13T08:37:18;22.80;77.60
70149;DHT22;57514;52.164;5.282;2023-07-13T08:42:37;20.80;80.80
70149;DHT22;57514;52.164;5.282;2023-07-13T08:45:33;20.60;87.10
70149;DHT22;57514;52.164;5.282;2023-07-13T08:48:08;21.90;84.20
70149;DHT22;57514;52.164;5.282;2023-07-13T08:50:56;21.50;84.80
70149;DHT22;57514;52.164;5.282;2023-07-13T08:53:38;20.70;93.80
70149;DHT22;57514;52.164;5.282;2023-07-13T08:56:18;19.20;87.70
70149;DHT22;57514;52.164;5.282;2023-07-13T08:58:50;19.50;95.60
70149;DHT22;57514;52.164;5.282;2023-07-13T09:01:38;19.90;93.90
70149;DHT22;57514;52.164;5.282;2023-07-13T09:04:14;19.90;94.20
70149;DHT22;57514;52.164;5.282;2023-07-13T09:15:02;21.50;96.30
70149;DHT22;57514;52.164;5.282;2023-07-13T09:17:41;20.00;97.10
70149;DHT22;57514;52.164;5.282;2023-07-13T09:20:25;21.50;92.20
70149;DHT22;57514;52.164;5.282;2023-07-13T09:25:30;19.70;97.70
70149;DHT22;57514;52.164;5.282;2023-07-13T09:35:39;21.80;95.60
70149;DHT22;57514;52.164;5.282;2023-07-13T09:41:13;21.10;86.00
70149;DHT22;57514;52.164;5.282;2023-07-13T09:44:10;20.40;86.30
70149;DHT22;57514;52.164;5.282;2023-07-13T09:46:44;19.70;89.30
70149;DHT22;57514;52.164;5.282;2023-07-13T09:51:43;18.80;90.10
70149;DHT22;57514;52.164;5.282;2023-07-13T09:54:22;18.70;92.80
70149;DHT22;57514;52.164;5.282;2023-07-13T09:57:01;19.10;98.00
70149;DHT22;57514;52.164;5.282;2023-07-13T09:59:31;22.10;99.90
70149;DHT22;57514;52.164;5.282;2023-07-13T10:01:58;21.10;99.90
70149;DHT22;57514;52.164;5.282;2023-07-13T10:04:32;22.90;90.80
70149;DHT22;57514;52.164;5.282;2023-07-13T10:07:12;25.30;98.10
70149;DHT22;57514;52.164;5.282;2023-07-13T10:10:00;25.70;95.00
70149;DHT22;57514;52.164;5.282;2023-07-13T10:12:30;24.80;93.00
70149;DHT22;57514;52.164;5.282;2023-07-13T10:15:02;23.20;91.20
70149;DHT22;57514;52.164;5.282;2023-07-13T10:17:50;22.80;92.20
70149;DHT22;57514;52.164;5.282;2023-07-13T10:20:19;24.90;88.00
70149;DHT22;57514;52.164;5.282;2023-07-13T10:23:07;26.80;94.20
70149;DHT22;57514;52.164;5.282;2023-07-13T10:25:41;26.50;83.30
70149;DHT22;57514;52.164;5.282;2023-07-13T10:28:33;25.50;91.30
70149;DHT22;57514;52.164;5.282;2023-07-13T10:31:02;26.50;89.70
70149;DHT22;57514;52.164;5.282;2023-07-13T10:33:31;25.50;88.90
70149;DHT22;57514;52.164;5.282;2023-07-13T10:38:53;24.10;91.70
70149;DHT22;57514;52.164;5.282;2023-07-13T10:41:26;26.20;92.20
70149;DHT22;57514;52.164;5.282;2023-07-13T10:43:55;25.00;82.20
70149;DHT22;57514;52.164;5.282;2023-07-13T10:46:26;25.60;84.10
70149;DHT22;57514;52.164;5.282;2023-07-13T10:49:06;26.50;78.60
70149;DHT22;57514;52.164;5.282;2023-07-13T10:51:35;26.50;77.30
70149;DHT22;57514;52.164;5.282;2023-07-13T10:54:22;25.70;86.50
70149;DHT22;57514;52.164;5.282;2023-07-13T10:57:21;25.00;72.00
70149;DHT22;57514;52.164;5.282;2023-07-13T11:02:31;23.60;91.50
70149;DHT22;57514;52.164;5.282;2023-07-13T11:04:58;23.70;86.10
70149;DHT22;57514;52.164;5.282;2023-07-13T11:07:26;22.80;96.30
70149;DHT22;57514;52.164;5.282;2023-07-13T11:10:04;24.10;92.90
70149;DHT22;57514;52.164;5.282;2023-07-13T11:12:52;27.40;87.60
70149;DHT22;57514;52.164;5.282;2023-07-13T11:15:58;26.80;91.10
70149;DHT22;57514;52.164;5.282;2023-07-13T11:18:25;29.20;87.70
70149;DHT22;57514;52.164;5.282;2023-07-13T11:21:13;28.00;72.70
70149;DHT22;57514;52.164;5.282;2023-07-13T11:24:14;27.50;71.70
70149;DHT22;57514;52.164;5.282;2023-07-13T11:31:56;25.20;85.90
70149;DHT22;57514;52.164;5.282;2023-07-13T11:34:37;25.20;90.10
70149;DHT22;57514;52.164;5.282;2023-07-13T11:37:12;25.60;85.10
70149;DHT22;57514;52.164;5.282;2023-07-13T11:39:42;27.30;83.50
70149;DHT22;57514;52.164;5.282;2023-07-13T11:42:16;28.60;77.00
70149;DHT22;57514;52.164;5.282;2023-07-13T11:44:48;28.40;69.90
70149;DHT22;57514;52.164;5.282;2023-07-13T11:47:40;27.40;67.60
70149;DHT22;57514;52.164;5.282;2023-07-13T11:50:21;27.60;74.60
70149;DHT22;57514;52.164;5.282;2023-07-13T11:52:49;25.50;71.60
70149;DHT22;57514;52.164;5.282;2023-07-13T11:55:18;25.00;80.80
70149;DHT22;57514;52.164;5.282;2023-07-13T11:57:50;25.60;85.90
70149;DHT22;57514;52.164;5.282;2023-07-13T12:00:22;26.40;91.00
70149;DHT22;57514;52.164;5.282;2023-07-13T12:02:54;27.60;90.80
70149;DHT22;57514;52.164;5.282;2023-07-13T12:07:50;26.90;82.60
70149;DHT22;57514;52.164;5.282;2023-07-13T12:10:23;26.10;69.40
70149;DHT22;57514;52.164;5.282;2023-07-13T12:13:01;27.50;83.40
70149;DHT22;57514;52.164;5.282;2023-07-13T12:15:40;25.70;71.20
70149;DHT22;57514;52.164;5.282;2023-07-13T12:18:19;24.70;91.60
70149;DHT22;57514;52.164;5.282;2023-07-13T12:20:48;26.40;78.60
70149;DHT22;57514;52.164;5.282;2023-07-13T12:23:32;29.00;85.90
70149;DHT22;57514;52.164;5.282;2023-07-13T12:26:03;27.40;71.10
70149;DHT22;57514;52.164;5.282;2023-07-13T12:28:39;27.80;78.10
70149;DHT22;57514;52.164;5.282;2023-07-13T12:31:37;29.80;88.40
70149;DHT22;57514;52.164;5.282;2023-07-13T12:36:47;29.50;74.10
70149;DHT22;57514;52.164;5.282;2023-07-13T12:39:25;30.30;76.40
70149;DHT22;57514;52.164;5.282;2023-07-13T12:44:41;32.90;60.80
70149;DHT22;57514;52.164;5.282;2023-07-13T12:47:12;32.80;65.90
70149;DHT22;57514;52.164;5.282;2023-07-13T12:49:42;33.70;51.70
70149;DHT22;57514;52.164;5.282;2023-07-13T12:52:20;32.00;62.20
70149;DHT22;57514;52.164;5.282;2023-07-13T12:55:10;31.80;50.20
70149;DHT22;57514;52.164;5.282;2023-07-13T12:57:54;32.60;52.20
70149;DHT22;57514;52.164;5.282;2023-07-13T13:00:36;34.00;64.40
70149;DHT22;57514;52.164;5.282;2023-07-13T13:03:28;32.50;47.70
70149;DHT22;57514;52.164;5.282;2023-07-13T13:08:49;30.40;47.80
70149;DHT22;57514;52.164;5.282;2023-07-13T13:11:21;29.60;49.80
70149;DHT22;57514;52.164;5.282;2023-07-13T13:13:53;29.10;62.10
70149;DHT22;57514;52.164;5.282;2023-07-13T13:18:55;28.00;51.00
70149;DHT22;57514;52.164;5.282;2023-07-13T13:21:26;27.60;52.20
70149;DHT22;57514;52.164;5.282;2023-07-13T13:26:22;27.60;67.60
70149;DHT22;57514;52.164;5.282;2023-07-13T13:28:49;27.80;67.20
70149;DHT22;57514;52.164;5.282;2023-07-13T13:33:45;26.80;54.50
70149;DHT22;57514;52.164;5.282;2023-07-13T13:36:18;28.60;50.50
70149;DHT22;57514;52.164;5.282;2023-07-13T13:38:46;30.00;52.20
70149;DHT22;57514;52.164;5.282;2023-07-13T13:41:14;32.90;59.30
70149;DHT22;57514;52.164;5.282;2023-07-13T13:43:43;33.70;62.50
70149;DHT22;57514;52.164;5.282;2023-07-13T13:46:25;32.80;44.80
70149;DHT22;57514;52.164;5.282;2023-07-13T13:48:55;32.50;40.90
70149;DHT22;57514;52.164;5.282;2023-07-13T13:51:24;31.20;56.90
70149;DHT22;57514;52.164;5.282;2023-07-13T13:56:20;29.60;40.50
70149;DHT22;57514;52.164;5.282;2023-07-13T14:01:20;33.10;49.30
70149;DHT22;57514;52.164;5.282;2023-07-13T14:08:47;34.10;53.70
70149;DHT22;57514;52.164;5.282;2023-07-13T14:11:17;34.20;38.00
70149;DHT22;57514;52.164;5.282;2023-07-13T14:13:56;34.50;37.50
70149;DHT22;57514;52.164;5.282;2023-07-13T14:16:30;35.20;52.30
70149;DHT22;57514;52.164;5.282;2023-07-13T14:19:01;35.10;52.10
70149;DHT22;57514;52.164;5.282;2023-07-13T14:21:29;31.40;37.00
70149;DHT22;57514;52.164;5.282;2023-07-13T14:26:26;32.90;45.30
70149;DHT22;57514;52.164;5.282;2023-07-13T14:28:55;30.80;39.80
70149;DHT22;57514;52.164;5.282;2023-07-13T14:31:24;29.30;44.10
70149;DHT22;57514;52.164;5.282;2023-07-13T14:33:56;31.20;56.40
70149;DHT22;57514;52.164;5.282;2023-07-13T14:36:28;30.00;55.90
70149;DHT22;57514;52.164;5.282;2023-07-13T14:38:57;30.40;47.50
70149;DHT22;57514;52.164;5.282;2023-07-13T14:41:25;28.10;55.30
70149;DHT22;57514;52.164;5.282;2023-07-13T14:43:52;27.90;55.70
70149;DHT22;57514;52.164;5.282;2023-07-13T14:53:44;27.60;56.10
70149;DHT22;57514;52.164;5.282;2023-07-13T14:56:12;28.00;42.60
70149;DHT22;57514;52.164;5.282;2023-07-13T15:01:14;27.40;44.50
70149;DHT22;57514;52.164;5.282;2023-07-13T15:03:45;27.30;44.80
70149;DHT22;57514;52.164;5.282;2023-07-13T15:06:13;28.50;60.90
70149;DHT22;57514;52.164;5.282;2023-07-13T15:11:08;27.30;45.60
70149;DHT22;57514;52.164;5.282;2023-07-13T15:13:41;27.30;43.80
70149;DHT22;57514;52.164;5.282;2023-07-13T15:16:16;26.50;51.10
70149;DHT22;57514;52.164;5.282;2023-07-13T15:21:20;27.40;60.10
70149;DHT22;57514;52.164;5.282;2023-07-13T15:26:16;26.00;58.60
70149;DHT22;57514;52.164;5.282;2023-07-13T15:28:44;27.20;45.00
70149;DHT22;57514;52.164;5.282;2023-07-13T15:31:30;27.10;43.40
70149;DHT22;57514;52.164;5.282;2023-07-13T15:33:59;27.20;45.40
70149;DHT22;57514;52.164;5.282;2023-07-13T15:38:55;25.60;49.10
70149;DHT22;57514;52.164;5.282;2023-07-13T15:41:24;25.30;59.40
70149;DHT22;57514;52.164;5.282;2023-07-13T15:43:54;26.30;58.50
70149;DHT22;57514;52.164;5.282;2023-07-13T15:46:23;26.20;46.80
70149;DHT22;57514;52.164;5.282;2023-07-13T15:48:51;27.40;62.20
70149;DHT22;57514;52.164;5.282;2023-07-13T15:51:28;25.90;45.00
70149;DHT22;57514;52.164;5.282;2023-07-13T15:53:58;24.80;46.20
70149;DHT22;57514;52.164;5.282;2023-07-13T15:56:28;25.30;61.60
70149;DHT22;57514;52.164;5.282;2023-07-13T15:58:56;25.20;59.50
70149;DHT22;57514;52.164;5.282;2023-07-13T16:01:24;26.30;54.50
70149;DHT22;57514;52.164;5.282;2023-07-13T16:08:49;24.20;62.90
70149;DHT22;57514;52.164;5.282;2023-07-13T16:11:24;23.70;61.50
70149;DHT22;57514;52.164;5.282;2023-07-13T16:13:52;25.10;48.90
70149;DHT22;57514;52.164;5.282;2023-07-13T16:16:25;23.80;48.40
70149;DHT22;57514;52.164;5.282;2023-07-13T16:18:53;25.00;52.40
70149;DHT22;57514;52.164;5.282;2023-07-13T16:21:25;23.50;54.70
70149;DHT22;57514;52.164;5.282;2023-07-13T16:23:53;24.70;56.10
70149;DHT22;57514;52.164;5.282;2023-07-13T16:26:36;24.80;49.70
70149;DHT22;57514;52.164;5.282;2023-07-13T16:31:41;26.10;65.10
70149;DHT22;57514;52.164;5.282;2023-07-13T16:36:38;25.30;64.80
70149;DHT22;57514;52.164;5.282;2023-07-13T16:39:15;25.40;65.30
70149;DHT22;57514;52.164;5.282;2023-07-13T16:44:17;24.60;49.10
70149;DHT22;57514;52.164;5.282;2023-07-13T16:46:55;25.20;65.90
70149;DHT22;57514;52.164;5.282;2023-07-13T16:49:31;24.50;51.90
70149;DHT22;57514;52.164;5.282;2023-07-13T16:52:00;23.20;65.60
70149;DHT22;57514;52.164;5.282;2023-07-13T16:54:31;24.40;52.40
70149;DHT22;57514;52.164;5.282;2023-07-13T16:57:01;25.20;67.20
70149;DHT22;57514;52.164;5.282;2023-07-13T16:59:30;24.60;54.30
70149;DHT22;57514;52.164;5.282;2023-07-13T17:01:59;24.50;53.10
70149;DHT22;57514;52.164;5.282;2023-07-13T17:04:27;25.50;57.00
70149;DHT22;57514;52.164;5.282;2023-07-13T17:06:56;25.40;67.90
70149;DHT22;57514;52.164;5.282;2023-07-13T17:14:22;24.60;67.40
70149;DHT22;57514;52.164;5.282;2023-07-13T17:16:53;23.00;55.90
70149;DHT22;57514;52.164;5.282;2023-07-13T17:19:29;23.80;53.20
70149;DHT22;57514;52.164;5.282;2023-07-13T17:24:27;24.40;62.30
70149;DHT22;57514;52.164;5.282;2023-07-13T17:26:55;23.90;63.00
70149;DHT22;57514;52.164;5.282;2023-07-13T17:29:24;22.70;59.50
70149;DHT22;57514;52.164;5.282;2023-07-13T17:34:18;22.90;64.10
70149;DHT22;57514;52.164;5.282;2023-07-13T17:39:19;23.70;54.40
70149;DHT22;57514;52.164;5.282;2023-07-13T17:41:47;23.70;53.70
70149;DHT22;57514;52.164;5.282;2023-07-13T17:44:15;23.50;54.60
70149;DHT22;57514;52.164;5.282;2023-07-13T17:46:47;23.90;63.80
70149;DHT22;57514;52.164;5.282;2023-07-13T17:51:48;23.40;55.60
70149;DHT22;57514;52.164;5.282;2023-07-13T17:54:17;23.40;55.40
70149;DHT22;57514;52.164;5.282;2023-07-13T17:56:44;21.90;68.70
70149;DHT22;57514;52.164;5.282;2023-07-13T17:59:11;24.00;69.70
70149;DHT22;57514;52.164;5.282;2023-07-13T18:04:13;24.10;54.80
70149;DHT22;57514;52.164;5.282;2023-07-13T18:06:44;23.20;54.50
70149;DHT22;57514;52.164;5.282;2023-07-13T18:09:25;23.30;56.80
70149;DHT22;57514;52.164;5.282;2023-07-13T18:11:53;23.30;58.10
70149;DHT22;57514;52.164;5.282;2023-07-13T18:14:23;24.50;71.00
70149;DHT22;57514;52.164;5.282;2023-07-13T18:16:54;23.10;56.60
70149;DHT22;57514;52.164;5.282;2023-07-13T18:21:49;23.00;56.60
70149;DHT22;57514;52.164;5.282;2023-07-13T18:31:42;22.70;58.50
70149;DHT22;57514;52.164;5.282;2023-07-13T18:34:12;24.10;65.90
70149;DHT22;57514;52.164;5.282;2023-07-13T18:36:41;22.40;58.50
70149;DHT22;57514;52.164;5.282;2023-07-13T18:39:14;21.20;71.80
70149;DHT22;57514;52.164;5.282;2023-07-13T18:41:43;22.40;60.10
70149;DHT22;57514;52.164;5.282;2023-07-13T18:44:12;22.40;60.50
70149;DHT22;57514;52.164;5.282;2023-07-13T18:46:40;21.20;61.30
70149;DHT22;57514;52.164;5.282;2023-07-13T18:49:09;22.10;60.80
70149;DHT22;57514;52.164;5.282;2023-07-13T18:51:42;22.10;61.30
70149;DHT22;57514;52.164;5.282;2023-07-13T18:54:13;21.90;62.20
70149;DHT22;57514;52.164;5.282;2023-07-13T19:12:30;22.90;63.20
70149;DHT22;57514;52.164;5.282;2023-07-13T19:24:49;20.90;65.40
70149;DHT22;57514;52.164;5.282;2023-07-13T19:32:15;20.50;64.70
70149;DHT22;57514;52.164;5.282;2023-07-13T19:37:21;20.30;65.10
70149;DHT22;57514;52.164;5.282;2023-07-13T19:42:24;20.00;67.80
70149;DHT22;57514;52.164;5.282;2023-07-13T19:44:55;19.90;68.20
70149;DHT22;57514;52.164;5.282;2023-07-13T19:47:23;19.80;68.70
70149;DHT22;57514;52.164;5.282;2023-07-13T19:49:51;19.60;69.00
70149;DHT22;57514;52.164;5.282;2023-07-13T19:52:26;19.60;69.60
70149;DHT22;57514;52.164;5.282;2023-07-13T19:54:56;19.50;70.00
70149;DHT22;57514;52.164;5.282;2023-07-13T19:59:55;18.10;83.20
70149;DHT22;57514;52.164;5.282;2023-07-13T20:02:25;17.00;69.70
70149;DHT22;57514;52.164;5.282;2023-07-13T20:04:56;19.20;69.70
70149;DHT22;57514;52.164;5.282;2023-07-13T20:07:33;18.30;73.20
70149;DHT22;57514;52.164;5.282;2023-07-13T20:12:29;20.40;81.60
70149;DHT22;57514;52.164;5.282;2023-07-13T20:14:56;20.40;86.20
70149;DHT22;57514;52.164;5.282;2023-07-13T20:17:35;17.30;85.90
70149;DHT22;57514;52.164;5.282;2023-07-13T20:20:30;18.70;71.90
70149;DHT22;57514;52.164;5.282;2023-07-13T20:34:03;18.30;74.60
70149;DHT22;57514;52.164;5.282;2023-07-13T20:36:32;18.30;75.00
70149;DHT22;57514;52.164;5.282;2023-07-13T20:56:24;17.90;77.20
70149;DHT22;57514;52.164;5.282;2023-07-13T20:58:52;19.50;78.00
70149;DHT22;57514;52.164;5.282;2023-07-13T21:01:31;17.80;75.70
70149;DHT22;57514;52.164;5.282;2023-07-13T21:04:08;17.70;77.60
70149;DHT22;57514;52.164;5.282;2023-07-13T21:14:25;16.40;90.30
70149;DHT22;57514;52.164;5.282;2023-07-13T21:16:54;17.60;78.20
70149;DHT22;57514;52.164;5.282;2023-07-13T21:21:55;16.50;90.50
70149;DHT22;57514;52.164;5.282;2023-07-13T21:24:22;16.40;90.60
70149;DHT22;57514;52.164;5.282;2023-07-13T21:26:49;16.90;90.80
70149;DHT22;57514;52.164;5.282;2023-07-13T21:39:14;17.30;79.30
70149;DHT22;57514;52.164;5.282;2023-07-13T21:44:30;16.60;87.30
70149;DHT22;57514;52.164;5.282;2023-07-13T21:49:27;17.80;91.20
70149;DHT22;57514;52.164;5.282;2023-07-13T22:01:49;16.90;79.00
70149;DHT22;57514;52.164;5.282;2023-07-13T22:04:19;17.10;79.30
70149;DHT22;57514;52.164;5.282;2023-07-13T22:11:44;17.30;83.50
70149;DHT22;57514;52.164;5.282;2023-07-13T22:16:38;16.40;79.50
70149;DHT22;57514;52.164;5.282;2023-07-13T22:19:17;16.80;79.80
70149;DHT22;57514;52.164;5.282;2023-07-13T22:21:45;18.00;89.50
70149;DHT22;57514;52.164;5.282;2023-07-13T22:24:17;16.80;80.30
70149;DHT22;57514;52.164;5.282;2023-07-13T22:26:45;18.10;91.40
70149;DHT22;57514;52.164;5.282;2023-07-13T22:29:14;15.50;91.40
70149;DHT22;57514;52.164;5.282;2023-07-13T22:31:42;15.80;91.60
70149;DHT22;57514;52.164;5.282;2023-07-13T22:34:12;16.50;80.70
70149;DHT22;57514;52.164;5.282;2023-07-13T22:36:43;16.50;80.90
70149;DHT22;57514;52.164;5.282;2023-07-13T22:39:18;15.20;87.60
70149;DHT22;57514;52.164;5.282;2023-07-13T22:41:48;17.60;90.30
70149;DHT22;57514;52.164;5.282;2023-07-13T22:44:20;16.50;79.90
70149;DHT22;57514;52.164;5.282;2023-07-13T22:49:28;16.30;81.80
70149;DHT22;57514;52.164;5.282;2023-07-13T22:52:01;16.30;82.00
70149;DHT22;57514;52.164;5.282;2023-07-13T22:54:30;16.30;90.40
70149;DHT22;57514;52.164;5.282;2023-07-13T23:01:54;16.30;82.10
70149;DHT22;57514;52.164;5.282;2023-07-13T23:04:29;16.30;80.50
70149;DHT22;57514;52.164;5.282;2023-07-13T23:06:57;16.30;82.40
70149;DHT22;57514;52.164;5.282;2023-07-13T23:09:27;15.60;82.50
70149;DHT22;57514;52.164;5.282;2023-07-13T23:11:58;17.40;93.10
70149;DHT22;57514;52.164;5.282;2023-07-13T23:14:27;16.20;83.20
70149;DHT22;57514;52.164;5.282;2023-07-13T23:16:56;16.20;83.10
70149;DHT22;57514;52.164;5.282;2023-07-13T23:19:32;16.20;83.80
70149;DHT22;57514;52.164;5.282;2023-07-13T23:22:00;16.20;82.20
70149;DHT22;57514;52.164;5.282;2023-07-13T23:24:33;16.20;83.20
70149;DHT22;57514;52.164;5.282;2023-07-13T23:36:55;12.70;80.20
70149;DHT22;57514;52.164;5.282;2023-07-13T23:39:22;14.80;92.90
70149;DHT22;57514;52.164;5.282;2023-07-13T23:46:48;14.70;92.90
70149;DHT22;57514;52.164;5.282;2023-07-13T23:51:55;17.60;93.60
70149;DHT22;57514;52.164;5.282;2023-07-13T23:54:26;16.20;83.80
70149;DHT22;57514;52.164;5.282;2023-07-13T23:59:21;15.00;91.20
